KLXT

Lee's Summit Municipal Airport

Lee's Summit, Missouri, USA
METAR KLXT 141313Z AUTO 16006KT 10SM BKN008 BKN013 OVC020 22/22 A2993 RMK AO2 RAE10 P0000 T02170217
Observed Flight Rules
Aug-14 @ 13:13 UTC (30 minutes ago) Instrument Flight Rules
Wind Visibility Clouds
160° at 6 knots 10 miles
  • Broken at 800' AGL
  • Broken at 1,300' AGL
  • Overcast at 2,000' AGL
Temperatures Readings Precipitation
Current 22°C / 72°F
Dewpoint 22°C / 72°F
Humidity 100%
Altimeter 29.93" Hg
Pressure 1014 hPa
Elevation 306
Current Rain 0.005
METAR KLXT 141313Z AUTO 16006KT 10SM BKN008 BKN013 OVC020 22/22 A2993 RMK AO2 RAE10 P0000 T02170217
Observed Flight Rules
Aug-14 @ 13:13 UTC
(30 minutes ago)
IFR
Wind Visibility
160° at 6 knots 10 miles
Clouds
  • Broken at 800' AGL
  • Broken at 1,300' AGL
  • Overcast at 2,000' AGL
Temperature Dewpoint
22°C / 72°F 22°C / 72°F
Humidity Altimeter Pressure
100% 29.93" Hg 1014 hPa
Current Rain
0.005